Weather observations for the past three days for
Kansas City, Kansas City Downtown Airport
Imperial (Metric)
Date Time (cdt) Wind (mph) Vis. (mi.) Weather Sky Cond. Temperature (ºF) Relative Humidity Wind Chill (°F) Heat Index (°F) Pressure Precipitation (in)
Air Dwpt 6 hour altimeter (in) sea level (mb) 1 hr 3 hr 6 hr
Max. Min.
06 14:54 NE 9 10.00 Fair CLR 98.1 72 43% 107 29.91 1011.8
06 13:54 SE 8 10.00 Fair CLR 97 70 42% 104 29.93 1012.5
06 12:54 Vrbl 3 10.00 Fair CLR 96.1 72 96.1 79 46% 105 29.96 1013.5
06 11:54 Calm 10.00 A Few Clouds FEW085 93 73 52% 102 29.99 1014.4
06 10:54 E 3 10.00 Fair CLR 90 73 58% 98 29.99 1014.5
06 09:54 SE 3 10.00 Fair CLR 86 73 65% 93 29.99 1014.5
06 08:54 E 7 10.00 Fair CLR 82 71.1 69% 86 30 1014.7
06 07:54 E 7 10.00 Fair CLR 80.1 71.1 74% 84 29.98 1014.1
06 06:54 NE 3 10.00 Fair CLR 79 71.1 86 79 77% 82 29.96 1013.4
06 05:54 E 3 10.00 Fair CLR 80.1 71.1 74% 84 29.95 1013.1
06 04:54 E 5 10.00 Fair CLR 80.1 72 76% 84 29.94 1012.9
06 03:54 E 3 10.00 Fair CLR 82 71.1 69% 86 29.93 1012.5
06 02:54 Calm 10.00 A Few Clouds FEW080 81 71.1 72% 85 29.93 1012.3
06 01:54 E 7 10.00 Fair CLR 82.9 71.1 67% 88 29.93 1012.5
06 00:54 E 3 10.00 Fair CLR 86 71.1 96.1 82 61% 92 29.94 1012.7
05 23:54 Calm 10.00 Fair CLR 87.1 72 61% 94 29.94 1012.6
05 22:54 Calm 10.00 Fair CLR 88 71.1 57% 94 29.93 1012.4
05 21:54 E 5 10.00 Fair CLR 90 71.1 54% 96 29.91 1011.8
05 20:54 E 3 10.00 Fair CLR 91.9 69.1 47% 97 29.89 1011.1
05 19:54 E 7 10.00 Fair CLR 95 69.1 43% 101 29.88 1010.8
05 18:54 E 7 10.00 Fair CLR 96.1 68 99 96.1 40% 101 29.88 1010.7
05 17:54 Vrbl 6 10.00 Fair CLR 98.1 68 38% 103 29.87 1010.4
05 16:54 E 6 10.00 Fair CLR 98.1 68 38% 103 29.88 1010.7
05 15:54 E 6 10.00 Fair CLR 98.1 69.1 39% 104 29.9 1011.5
05 14:54 N 7 10.00 A Few Clouds FEW080 97 69.1 40% 103 29.92 1012.1
05 12:54 Calm 10.00 Fair CLR 96.1 68 97 77 40% 101 29.96 1013.4
05 11:54 Vrbl 3 10.00 Fair CLR 95 70 44% 101 29.98 1014.1
05 10:54 Calm 10.00 Fair CLR 91.9 70 49% 98 29.98 1014.0
05 09:54 Calm 10.00 Fair CLR 87.1 68 53% 91 29.96 1013.6
05 07:54 Calm 10.00 Fair CLR 81 69.1 67% 84 29.94 1013.0
05 06:54 Calm 10.00 Fair CLR 78.1 72 84.9 75.9 82% 80 29.93 1012.7
05 05:54 Calm 10.00 Fair CLR 78.1 72 82% 80 29.91 1011.9
05 04:54 Calm 10.00 Fair CLR 77 72 85% 78 29.91 1011.9
05 03:54 Calm 10.00 Fair CLR 80.1 73 79% 84 29.91 1011.8
05 02:54 Calm 10.00 Fair CLR 79 72 79% 82 29.91 1011.8
05 01:54 Calm 10.00 Fair CLR 81 73.9 79% 86 29.92 1012.0
05 00:54 SW 3 10.00 Fair CLR 84.9 70 96.1 81 61% 89 29.91 1011.9
04 23:54 Calm 10.00 Fair CLR 84 72 67% 90 29.91 1011.9
04 22:54 Calm 10.00 Fair CLR 87.1 71.1 59% 93 29.91 1011.9
04 21:54 Calm 10.00 Fair CLR 90 68 48% 94 29.91 1011.7
04 20:54 Calm 10.00 Fair CLR 91.9 68 46% 96 29.89 1011.0
04 19:54 S 7 10.00 Fair CLR 91.9 66.9 44% 95 29.87 1010.5
04 18:54 S 13 10.00 Fair CLR 93.9 68 98.1 93 43% 98 29.87 1010.6
04 17:54 S 8 10.00 Fair CLR 97 68 39% 102 29.88 1010.5
04 16:54 S 12 10.00 Fair CLR 98.1 70 40% 105 29.89 1010.9
04 15:54 Calm 10.00 Fair CLR 97 69.1 40% 103 29.89 1011.2
04 14:54 S 7 10.00 Fair CLR 96.1 70 43% 103 29.91 1011.8
04 13:54 SW 10 10.00 Fair CLR 95 70 44% 101 29.92 1012.1
04 12:54 SW 8 10.00 Fair CLR 93.9 70 93.9 79 46% 100 29.94 1012.6
04 11:54 S 13 G 24 10.00 Fair CLR 91.9 71.1 51% 99 29.95 1013.2
04 10:54 SW 15 10.00 Fair CLR 90 71.1 54% 96 29.96 1013.5
04 09:54 SW 13 10.00 Fair CLR 88 71.1 57% 94 29.96 1013.5
04 08:54 S 8 10.00 Fair CLR 84.9 70 61% 89 29.96 1013.3
04 07:54 SW 5 10.00 Fair CLR 81 69.1 67% 84 29.95 1013.1
04 06:54 S 8 10.00 Fair CLR 79 69.1 86 78.1 72% 82 29.93 1012.5
04 05:54 S 8 10.00 Fair CLR 79 68 69% 81 29.92 1012.0
04 04:54 S 8 10.00 Fair CLR 80.1 68 67% 83 29.91 1011.7
04 03:54 S 6 10.00 Fair CLR 80.1 69.1 69% 83 29.89 1011.1
04 02:54 S 7 10.00 Fair CLR 81 68 65% 84 29.88 1010.8
04 01:54 SW 7 10.00 Fair CLR 82.9 68 61% 86 29.89 1010.9
04 00:54 SW 5 10.00 Fair CLR 84.9 66 96.1 82.9 53% 87 29.88 1010.9
03 23:54 SW 8 10.00 Fair CLR 84.9 66 53% 87 29.87 1010.5
03 22:54 SW 6 10.00 Fair CLR 86 66 51% 88 29.87 1010.5
03 21:54 S 9 10.00 Fair CLR 91.9 64.9 41% 94 29.87 1010.4
03 20:54 SE 6 10.00 Fair CLR 91.9 66.9 44% 95 29.86 1010.0
03 19:54 SE 6 10.00 Fair CLR 93.9 66 40% 97 29.84 1009.2
03 18:54 S 14 G 21 10.00 Fair CLR 96.1 64.9 98.1 95 36% 99 29.84 1009.2
03 17:54 S 14 G 23 10.00 Fair CLR 97 64.9 35% 100 29.83 1009.2
03 16:54 S 8 G 18 10.00 Fair CLR 97 66 36% 101 29.84 1009.3
03 15:54 SW 5 G 22 10.00 Fair CLR 97 68 39% 102 29.85 1009.8
Date Time (cdt) Wind (mph) Vis. (mi.) Weather Sky Cond. Air Dwpt Max. Min. Relative Humidity Wind Chill (°F) Heat Index (°F) altimeter (in) sea level (mb) 1 hr 3 hr 6 hr
6 hour
Temperature (ºF) Pressure Precipitation (in)